Athens, ME (04912)

8:55 PM EST on December 24, 2014 (GMT -0500)
North central Maine | Change Station
CLOSE
Current Station
Personal Weather Station
Location: Cambridge, ME
Elevation: 705 ft
Nearby Weather Stations
Active Advisory: Areal Flood Watch

Elev 705 ft 45.04 °N, 69.49 °W | Updated 15 minutes ago

Ice Pellets
Ice Pellets
33.4 °F
Feels Like 30 °F
N
4.0
Wind Variable Wind from NNE
Gusts 5.0 mph

Today
High -- | Low -- °F
--% Chance of Precip.
Yesterday
High -- | Low -- °F
Precip. -- in
7:14 AM 4:01 PM
Waxing Crescent, 12% visible
Pressure 29.71 in
Visibility 3.0 miles
Clouds Overcast 700 ft
Windchill 30 °F
Dew Point 32 °F
Humidity 96%
Rainfall 0.00 in
Snow Depth Not available.
UV 0 out of 12
Pollen .10 out of 12
Air Quality Not available.
Flu Activity Not available.
METAR KWVL 250135Z 36005KT 3SM OVC007 01/M01 A2971 RMK AO1 P0002

More Conditions Fewer Conditions

Pressure 29.71 in
Visibility 3.0 miles
Clouds Overcast 700 ft
Windchill 30 °F
Dew Point 32 °F
Humidity 96%
Rainfall 0.00 in
Snow Depth Not available.
UV 0 out of 12
Pollen .10 out of 12
Air Quality Not available.
Flu Activity Not available.
METAR KWVL 250135Z 36005KT 3SM OVC007 01/M01 A2971 RMK AO1 P0002

More Conditions Fewer Conditions

10-Day Weather Forecast

Almanac

Astronomy

Dec. 24, 2014 Rise Set
Actual Time
Civil Twilight
Nautical Twilight
Astronomical Twilight
Moon
Length of Visible Light
Length of Day
Tomorrow will be .
, % of the Moon is Illuminated

Today's Extremes

State Highs State Lows

Community

WunderPhotos

Upload Photos

1,780,208 photos uploaded!

WunderBlogs® & News

Nearby

Air Quality

  Air Quality AQ Index Pollutant
Not available.

Snow Depth

Station Depth Elevation

Earthquake Activity

City Distance Mag. Time & Date
Minimum magnitude displayed is 2.5.

Coastal Water Temperatures

Place Temperature

Nearby Weather Stations